AirNav   Air Wisconsin Up To $57,000 Bonus
 
 641 users online  

FD62 Waters Heliport
Fort Meade, Florida, USA

GOING TO FORT MEADE?


FAA INFORMATION EFFECTIVE 02 JANUARY 2020

Location

FAA Identifier: FD62
Lat/Long: 27-46-48.3000N 081-38-35.8000W
27-46.805000N 081-38.596667W
27.7800833,-81.6432778
(estimated)
Elevation: 125 ft. / 38 m (estimated)
From city: 14 miles NE of FORT MEADE, FL
Time zone: UTC -5 (UTC -4 during Daylight Saving Time)
Zip code: 33843

Heliport Operations

Heliport use: Private use. Permission required prior to landing
Activation date: 11/2007
Control tower: no
ARTCC: MIAMI CENTER
FSS: SAINT PETERSBURG FLIGHT SERVICE STATION
Attendance: UNATNDD
Segmented circle: no

Heliport Communications

WX AWOS-3 at X07 (7 nm N): 124.225 (863-678-1334)
WX AWOS-3 at BOW (12 nm NW): 123.775 (863-533-9004)
WX AWOS-3 at AVO (13 nm SE): 118.725 (863-453-4223)
WX ASOS at GIF (18 nm N): 133.675 (863-956-2097)

Nearby radio navigation aids

VOR radial/distance  VOR name  Freq  Var
LALr121/23.2LAKELAND VORTAC116.0001E

Heliport Services

Runway Information

Helipad H1

Dimensions: 500 x 500 ft. / 152 x 152 m
Surface: turf
Traffic pattern: leftleft

Heliport Ownership and Management from official FAA records

Ownership: Privately-owned
Owner: GREGORY A. WATERS
218 SOUTH LAKE STARR BLVD
FORT MEADE, FL 33898
Phone 863-676-8489
Manager: GREGORY A. WATERS
218 SOUTH LAKE STARR BLVD
FORT MEADE, FL 33898
Phone 863-676-8489

Additional Remarks

50 FT PLINE 750 FT SOUTH OF PAD.
FOR CD CTC MIAMI ARTCC AT 305-716-1731.

Instrument Procedures

There are no published instrument procedures at FD62.

Some nearby airports with instrument procedures:

X07 - Lake Wales Municipal Airport (7 nm N)
KBOW - Bartow Executive Airport (12 nm NW)
KAVO - Avon Park Executive Airport (13 nm SE)
KGIF - Winter Haven Regional Airport (18 nm N)
KCHN - Wauchula Municipal Airport (20 nm SW)
 
Loc | Ops | Rwys | IFR | FBO | Links
Com | Nav | Svcs | Stats | Notes

Reliance Aviation
AirBoss

 
Aerial photo
No photo
 
Sectional chart

 
Airport distance calculator
Flying to Waters Heliport? Find the distance to fly.

From to FD62

Sunrise and sunset
Times for 21-Jan-2020
 Local
(UTC-5)
 Zulu
(UTC)
Morning civil twilight06:5411:54
Sunrise07:1912:19
Sunset17:5722:57
Evening civil twilight18:2223:22

Current date and time
Zulu (UTC)  21-Jan-2020 11:53:38
Local (UTC-5)  21-Jan-2020 06:53:38
 
METAR
KX07 
7nm N 
211135Z AUTO 35006KT 10SM FEW022 06/03 A3020 RMK A01
KBOW 
11nm NW 
211135Z AUTO 33007KT 10SM OVC014 05/02 A3019 RMK AO2
KGIF 
18nm N 
211053Z AUTO 33010KT 10SM CLR 06/02 A3020 RMK AO2 SLP224 T00560022
TAF
KLAL 
23nm NW 
210525Z 2106/2206 01008KT P6SM SKC FM211600 34011G21KT P6SM SKC FM220200 36011KT P6SM SKC AMD NOT SKED TIL 211100
NOTAMs
Click for the latest NOTAMs
NOTAMs are issued by the DoD/FAA and will open in a separate window not controlled by AirNav.

 

 
 

Would you like to see your business listed on this page?

 If your business provides an interesting product or service to pilots, flight crews, aircraft, or users of the Waters Heliport, you should consider listing it here.  To start the listing process, click on the button below
 
Add a business
 

Other Pages about Waters Heliport

Update a link
 
Copyright © AirNav, LLC. All rights reserved. Privacy Policy  Contact